sensor_id;sensor_type;location;lat;lon;timestamp;pressure;altitude;pressure_sealevel;temperature;humidity
17060;BME280;8646;49.716;9.266;2023-03-07T00:01:56;99053.75;;;5.40;61.79
17060;BME280;8646;49.716;9.266;2023-03-07T00:04:58;99051.78;;;5.44;61.53
17060;BME280;8646;49.716;9.266;2023-03-07T00:08:04;99050.94;;;5.43;61.63
17060;BME280;8646;49.716;9.266;2023-03-07T00:11:07;99052.66;;;5.44;61.58
17060;BME280;8646;49.716;9.266;2023-03-07T00:14:12;99052.81;;;5.41;61.61
17060;BME280;8646;49.716;9.266;2023-03-07T00:17:18;99044.75;;;5.41;61.63
17060;BME280;8646;49.716;9.266;2023-03-07T00:20:21;99043.81;;;5.42;61.42
17060;BME280;8646;49.716;9.266;2023-03-07T00:23:25;99047.44;;;5.41;61.54
17060;BME280;8646;49.716;9.266;2023-03-07T00:26:30;99047.28;;;5.44;61.53
17060;BME280;8646;49.716;9.266;2023-03-07T00:29:41;99044.59;;;5.44;61.64
17060;BME280;8646;49.716;9.266;2023-03-07T00:32:43;99042.63;;;5.49;61.37
17060;BME280;8646;49.716;9.266;2023-03-07T00:35:53;99040.81;;;5.50;61.54
17060;BME280;8646;49.716;9.266;2023-03-07T00:38:56;99032.75;;;5.50;61.54
17060;BME280;8646;49.716;9.266;2023-03-07T00:41:59;99024.13;;;5.43;61.56
17060;BME280;8646;49.716;9.266;2023-03-07T00:45:07;99040.13;;;5.45;61.70
17060;BME280;8646;49.716;9.266;2023-03-07T00:48:11;99029.31;;;5.46;61.91
17060;BME280;8646;49.716;9.266;2023-03-07T00:51:18;99019.47;;;5.47;61.98
17060;BME280;8646;49.716;9.266;2023-03-07T00:54:21;99017.78;;;5.44;62.03
17060;BME280;8646;49.716;9.266;2023-03-07T00:57:26;99021.28;;;5.46;62.29
17060;BME280;8646;49.716;9.266;2023-03-07T01:00:33;99020.28;;;5.49;61.94
17060;BME280;8646;49.716;9.266;2023-03-07T01:03:36;99022.22;;;5.45;62.05
17060;BME280;8646;49.716;9.266;2023-03-07T01:06:39;99016.06;;;5.43;62.42
17060;BME280;8646;49.716;9.266;2023-03-07T01:09:42;99002.66;;;5.43;62.34
17060;BME280;8646;49.716;9.266;2023-03-07T01:12:47;99000.75;;;5.45;62.25
17060;BME280;8646;49.716;9.266;2023-03-07T01:15:51;98990.16;;;5.42;62.45
17060;BME280;8646;49.716;9.266;2023-03-07T01:18:57;98992.84;;;5.42;62.68
17060;BME280;8646;49.716;9.266;2023-03-07T01:22:00;98987.66;;;5.37;62.92
17060;BME280;8646;49.716;9.266;2023-03-07T01:25:04;98989.47;;;5.37;63.17
17060;BME280;8646;49.716;9.266;2023-03-07T01:28:08;98986.00;;;5.35;63.03
17060;BME280;8646;49.716;9.266;2023-03-07T01:31:12;98990.69;;;5.30;62.90
17060;BME280;8646;49.716;9.266;2023-03-07T01:34:15;98986.25;;;5.29;63.37
17060;BME280;8646;49.716;9.266;2023-03-07T01:37:18;98969.47;;;5.24;63.82
17060;BME280;8646;49.716;9.266;2023-03-07T01:40:22;98967.78;;;5.21;64.32
17060;BME280;8646;49.716;9.266;2023-03-07T01:43:27;98973.47;;;5.14;64.65
17060;BME280;8646;49.716;9.266;2023-03-07T01:46:40;98967.31;;;5.12;64.72
17060;BME280;8646;49.716;9.266;2023-03-07T01:49:43;98952.25;;;5.09;64.97
17060;BME280;8646;49.716;9.266;2023-03-07T01:52:52;98958.53;;;5.08;65.29
17060;BME280;8646;49.716;9.266;2023-03-07T01:55:57;98948.81;;;5.06;65.79
17060;BME280;8646;49.716;9.266;2023-03-07T01:59:00;98947.97;;;5.04;66.21
17060;BME280;8646;49.716;9.266;2023-03-07T02:02:05;98941.84;;;5.02;66.71
17060;BME280;8646;49.716;9.266;2023-03-07T02:05:13;98932.97;;;4.99;67.10
17060;BME280;8646;49.716;9.266;2023-03-07T02:08:19;98930.56;;;4.93;67.59
17060;BME280;8646;49.716;9.266;2023-03-07T02:11:23;98928.88;;;4.91;67.75
17060;BME280;8646;49.716;9.266;2023-03-07T02:14:26;98927.41;;;5.04;67.97
17060;BME280;8646;49.716;9.266;2023-03-07T02:17:30;98930.63;;;4.92;68.45
17060;BME280;8646;49.716;9.266;2023-03-07T02:20:38;98926.00;;;4.95;69.17
17060;BME280;8646;49.716;9.266;2023-03-07T02:23:53;98927.38;;;4.84;70.19
17060;BME280;8646;49.716;9.266;2023-03-07T02:26:59;98923.91;;;4.82;70.12
17060;BME280;8646;49.716;9.266;2023-03-07T02:30:02;98925.69;;;4.81;70.55
17060;BME280;8646;49.716;9.266;2023-03-07T02:33:05;98925.03;;;4.76;70.65
17060;BME280;8646;49.716;9.266;2023-03-07T02:36:10;98927.75;;;4.75;70.73
17060;BME280;8646;49.716;9.266;2023-03-07T02:39:14;98916.16;;;4.74;71.41
17060;BME280;8646;49.716;9.266;2023-03-07T02:42:20;98921.66;;;4.71;71.49
17060;BME280;8646;49.716;9.266;2023-03-07T02:45:27;98911.94;;;4.69;71.61
17060;BME280;8646;49.716;9.266;2023-03-07T02:48:30;98928.91;;;4.69;72.07
17060;BME280;8646;49.716;9.266;2023-03-07T02:51:34;98922.66;;;4.69;72.46
17060;BME280;8646;49.716;9.266;2023-03-07T02:54:40;98924.31;;;4.71;72.82
17060;BME280;8646;49.716;9.266;2023-03-07T02:57:44;98925.41;;;4.67;73.16
17060;BME280;8646;49.716;9.266;2023-03-07T03:00:47;98918.19;;;4.69;73.50
17060;BME280;8646;49.716;9.266;2023-03-07T03:03:50;98921.78;;;4.68;73.62
17060;BME280;8646;49.716;9.266;2023-03-07T03:06:54;98914.56;;;4.70;73.99
17060;BME280;8646;49.716;9.266;2023-03-07T03:09:57;98917.41;;;4.66;74.27
17060;BME280;8646;49.716;9.266;2023-03-07T03:13:01;98913.81;;;4.67;74.91
17060;BME280;8646;49.716;9.266;2023-03-07T03:16:04;98914.78;;;4.64;75.02
17060;BME280;8646;49.716;9.266;2023-03-07T03:19:06;98902.34;;;4.63;75.19
17060;BME280;8646;49.716;9.266;2023-03-07T03:22:09;98906.59;;;4.69;75.73
17060;BME280;8646;49.716;9.266;2023-03-07T03:25:13;98898.88;;;4.61;76.09
17060;BME280;8646;49.716;9.266;2023-03-07T03:28:17;98903.34;;;4.60;76.29
17060;BME280;8646;49.716;9.266;2023-03-07T03:31:20;98903.34;;;4.60;76.83
17060;BME280;8646;49.716;9.266;2023-03-07T03:34:23;98898.16;;;4.56;76.65
17060;BME280;8646;49.716;9.266;2023-03-07T03:37:25;98904.34;;;4.58;76.53
17060;BME280;8646;49.716;9.266;2023-03-07T03:40:36;98880.84;;;4.43;76.47
17060;BME280;8646;49.716;9.266;2023-03-07T03:43:41;98917.41;;;4.66;76.61
17060;BME280;8646;49.716;9.266;2023-03-07T03:46:46;98900.47;;;4.65;76.92
17060;BME280;8646;49.716;9.266;2023-03-07T03:49:49;98907.69;;;4.63;76.64
17060;BME280;8646;49.716;9.266;2023-03-07T03:52:51;98898.88;;;4.61;76.89
17060;BME280;8646;49.716;9.266;2023-03-07T03:56:08;98893.63;;;4.58;77.21
17060;BME280;8646;49.716;9.266;2023-03-07T03:59:13;98896.19;;;4.61;76.97
17060;BME280;8646;49.716;9.266;2023-03-07T04:02:16;98872.13;;;4.59;77.10
17060;BME280;8646;49.716;9.266;2023-03-07T04:05:21;98887.88;;;4.67;77.00
17060;BME280;8646;49.716;9.266;2023-03-07T04:08:23;98861.66;;;4.75;76.88
17060;BME280;8646;49.716;9.266;2023-03-07T04:11:27;98873.41;;;4.71;76.70
17060;BME280;8646;49.716;9.266;2023-03-07T04:14:34;98865.38;;;4.71;76.74
17060;BME280;8646;49.716;9.266;2023-03-07T04:17:36;98871.53;;;4.73;76.80
17060;BME280;8646;49.716;9.266;2023-03-07T04:20:42;98867.72;;;4.79;76.57
17060;BME280;8646;49.716;9.266;2023-03-07T04:23:55;98857.88;;;4.79;76.95
17060;BME280;8646;49.716;9.266;2023-03-07T04:26:58;98858.75;;;4.80;76.88
17060;BME280;8646;49.716;9.266;2023-03-07T04:30:07;98852.53;;;4.79;77.06
17060;BME280;8646;49.716;9.266;2023-03-07T04:33:10;98861.19;;;4.86;77.21
17060;BME280;8646;49.716;9.266;2023-03-07T04:36:14;98844.63;;;4.76;77.18
17060;BME280;8646;49.716;9.266;2023-03-07T04:39:17;98846.09;;;4.83;77.21
17060;BME280;8646;49.716;9.266;2023-03-07T04:42:20;98857.75;;;4.82;77.38
17060;BME280;8646;49.716;9.266;2023-03-07T04:45:24;98841.41;;;4.88;77.78
17060;BME280;8646;49.716;9.266;2023-03-07T04:48:27;98842.63;;;4.81;77.45
17060;BME280;8646;49.716;9.266;2023-03-07T04:51:30;98842.50;;;4.84;77.75
17060;BME280;8646;49.716;9.266;2023-03-07T04:54:33;98827.28;;;4.85;77.69
17060;BME280;8646;49.716;9.266;2023-03-07T04:57:38;98834.47;;;4.84;77.79
17060;BME280;8646;49.716;9.266;2023-03-07T05:00:44;98828.16;;;4.85;77.67
17060;BME280;8646;49.716;9.266;2023-03-07T05:03:47;98833.53;;;4.85;77.68
17060;BME280;8646;49.716;9.266;2023-03-07T05:06:50;98837.69;;;4.92;77.51
17060;BME280;8646;49.716;9.266;2023-03-07T05:09:55;98828.75;;;4.92;77.85
17060;BME280;8646;49.716;9.266;2023-03-07T05:13:00;98826.03;;;4.93;77.72
17060;BME280;8646;49.716;9.266;2023-03-07T05:16:05;98826.03;;;4.93;77.90
17060;BME280;8646;49.716;9.266;2023-03-07T05:19:08;98809.78;;;4.96;77.87
17060;BME280;8646;49.716;9.266;2023-03-07T05:22:12;98817.03;;;4.94;77.73
17060;BME280;8646;49.716;9.266;2023-03-07T05:25:15;98819.78;;;4.93;77.75
17060;BME280;8646;49.716;9.266;2023-03-07T05:28:17;98819.72;;;4.94;77.64
17060;BME280;8646;49.716;9.266;2023-03-07T05:31:22;98812.47;;;4.96;77.54
17060;BME280;8646;49.716;9.266;2023-03-07T05:34:24;98804.75;;;4.89;77.80
17060;BME280;8646;49.716;9.266;2023-03-07T05:37:27;98799.63;;;4.84;77.92
17060;BME280;8646;49.716;9.266;2023-03-07T05:40:30;98801.34;;;4.85;77.92
17060;BME280;8646;49.716;9.266;2023-03-07T05:43:33;98798.06;;;4.79;77.82
17060;BME280;8646;49.716;9.266;2023-03-07T05:46:37;98811.31;;;4.82;77.69
17060;BME280;8646;49.716;9.266;2023-03-07T05:49:40;98800.50;;;4.85;77.94
17060;BME280;8646;49.716;9.266;2023-03-07T05:52:42;98797.88;;;4.83;77.91
17060;BME280;8646;49.716;9.266;2023-03-07T05:55:45;98795.38;;;4.79;78.00
17060;BME280;8646;49.716;9.266;2023-03-07T05:58:48;98798.75;;;4.84;77.88
17060;BME280;8646;49.716;9.266;2023-03-07T06:01:53;98794.25;;;4.84;77.79
17060;BME280;8646;49.716;9.266;2023-03-07T06:04:56;98785.00;;;4.91;77.99
17060;BME280;8646;49.716;9.266;2023-03-07T06:07:59;98793.09;;;4.90;78.08
17060;BME280;8646;49.716;9.266;2023-03-07T06:11:02;98788.75;;;4.87;78.04
17060;BME280;8646;49.716;9.266;2023-03-07T06:14:04;98785.88;;;4.92;77.80
17060;BME280;8646;49.716;9.266;2023-03-07T06:17:12;98781.09;;;4.98;78.04
17060;BME280;8646;49.716;9.266;2023-03-07T06:20:14;98772.13;;;4.99;78.52
17060;BME280;8646;49.716;9.266;2023-03-07T06:23:17;98775.34;;;5.08;78.61
17060;BME280;8646;49.716;9.266;2023-03-07T06:26:20;98771.72;;;5.09;78.42
17060;BME280;8646;49.716;9.266;2023-03-07T06:29:23;98776.16;;;5.10;78.29
17060;BME280;8646;49.716;9.266;2023-03-07T06:32:27;98781.41;;;5.11;78.03
17060;BME280;8646;49.716;9.266;2023-03-07T06:35:29;98778.66;;;5.13;77.71
17060;BME280;8646;49.716;9.266;2023-03-07T06:38:32;98775.13;;;5.12;77.55
17060;BME280;8646;49.716;9.266;2023-03-07T06:41:35;98775.06;;;5.14;77.55
17060;BME280;8646;49.716;9.266;2023-03-07T06:44:39;98778.66;;;5.13;77.56
17060;BME280;8646;49.716;9.266;2023-03-07T06:47:45;98777.59;;;5.17;77.35
17060;BME280;8646;49.716;9.266;2023-03-07T06:50:48;98781.88;;;5.21;77.25
17060;BME280;8646;49.716;9.266;2023-03-07T06:53:51;98775.16;;;5.31;76.95
17060;BME280;8646;49.716;9.266;2023-03-07T06:56:53;98778.31;;;5.41;76.70
17060;BME280;8646;49.716;9.266;2023-03-07T06:59:56;98786.13;;;5.45;76.51
17060;BME280;8646;49.716;9.266;2023-03-07T07:03:03;98789.31;;;5.53;76.09
17060;BME280;8646;49.716;9.266;2023-03-07T07:06:06;98790.19;;;5.54;75.90
17060;BME280;8646;49.716;9.266;2023-03-07T07:09:11;98777.50;;;5.57;75.99
17060;BME280;8646;49.716;9.266;2023-03-07T07:12:14;98790.50;;;5.66;75.46
17060;BME280;8646;49.716;9.266;2023-03-07T07:15:17;98784.53;;;5.79;75.15
17060;BME280;8646;49.716;9.266;2023-03-07T07:18:21;98780.91;;;5.80;75.06
17060;BME280;8646;49.716;9.266;2023-03-07T07:21:23;98784.13;;;5.88;74.68
17060;BME280;8646;49.716;9.266;2023-03-07T07:24:26;98795.75;;;5.88;74.06
17060;BME280;8646;49.716;9.266;2023-03-07T07:27:29;98791.28;;;5.87;74.16
17060;BME280;8646;49.716;9.266;2023-03-07T07:30:32;98787.47;;;5.93;73.81
17060;BME280;8646;49.716;9.266;2023-03-07T07:33:39;98795.44;;;5.94;73.47
17060;BME280;8646;49.716;9.266;2023-03-07T07:36:42;98787.09;;;6.00;73.66
17060;BME280;8646;49.716;9.266;2023-03-07T07:39:44;98789.19;;;6.12;73.75
17060;BME280;8646;49.716;9.266;2023-03-07T07:42:48;98786.69;;;6.27;73.39
17060;BME280;8646;49.716;9.266;2023-03-07T07:45:55;98793.28;;;6.38;72.86
17060;BME280;8646;49.716;9.266;2023-03-07T07:49:01;98787.22;;;6.52;71.89
17060;BME280;8646;49.716;9.266;2023-03-07T07:52:04;98785.25;;;6.56;71.47
17060;BME280;8646;49.716;9.266;2023-03-07T07:55:08;98777.00;;;6.59;71.07
17060;BME280;8646;49.716;9.266;2023-03-07T07:58:10;98785.16;;;6.57;70.24
17060;BME280;8646;49.716;9.266;2023-03-07T08:01:14;98784.31;;;6.57;69.92
17060;BME280;8646;49.716;9.266;2023-03-07T08:04:22;98786.03;;;6.58;69.77
17060;BME280;8646;49.716;9.266;2023-03-07T08:07:27;98786.91;;;6.58;69.70
17060;BME280;8646;49.716;9.266;2023-03-07T08:10:29;98769.91;;;6.58;68.95
17060;BME280;8646;49.716;9.266;2023-03-07T08:13:32;98769.91;;;6.58;68.85
17060;BME280;8646;49.716;9.266;2023-03-07T08:16:35;98765.78;;;6.68;68.38
17060;BME280;8646;49.716;9.266;2023-03-07T08:19:39;98771.72;;;6.74;68.34
17060;BME280;8646;49.716;9.266;2023-03-07T08:22:42;98757.72;;;6.85;68.14
17060;BME280;8646;49.716;9.266;2023-03-07T08:25:45;98757.09;;;6.97;67.33
17060;BME280;8646;49.716;9.266;2023-03-07T08:28:47;98747.09;;;7.16;66.53
17060;BME280;8646;49.716;9.266;2023-03-07T08:31:50;98740.72;;;7.35;65.73
17060;BME280;8646;49.716;9.266;2023-03-07T08:34:57;98739.00;;;7.49;65.37
17060;BME280;8646;49.716;9.266;2023-03-07T08:37:59;98741.63;;;7.66;65.17
17060;BME280;8646;49.716;9.266;2023-03-07T08:41:03;98739.91;;;7.81;64.33
17060;BME280;8646;49.716;9.266;2023-03-07T08:44:06;98744.41;;;7.96;63.42
17060;BME280;8646;49.716;9.266;2023-03-07T08:47:09;98741.19;;;8.05;63.56
17060;BME280;8646;49.716;9.266;2023-03-07T08:50:16;98732.94;;;8.09;62.38
17060;BME280;8646;49.716;9.266;2023-03-07T08:53:19;98734.25;;;8.01;61.80
17060;BME280;8646;49.716;9.266;2023-03-07T08:56:27;98739.88;;;7.97;62.09
17060;BME280;8646;49.716;9.266;2023-03-07T08:59:31;98722.53;;;8.02;61.69
17060;BME280;8646;49.716;9.266;2023-03-07T09:02:36;98723.72;;;8.13;61.42
17060;BME280;8646;49.716;9.266;2023-03-07T09:05:40;98723.03;;;8.25;61.37
17060;BME280;8646;49.716;9.266;2023-03-07T09:08:46;98720.56;;;8.36;60.43
17060;BME280;8646;49.716;9.266;2023-03-07T09:11:49;98727.44;;;8.41;60.03
17060;BME280;8646;49.716;9.266;2023-03-07T09:15:01;98715.19;;;8.36;58.99
17060;BME280;8646;49.716;9.266;2023-03-07T09:18:06;98723.97;;;8.39;59.01
17060;BME280;8646;49.716;9.266;2023-03-07T09:21:13;98712.16;;;8.42;58.51
17060;BME280;8646;49.716;9.266;2023-03-07T09:24:16;98696.72;;;8.44;58.33
17060;BME280;8646;49.716;9.266;2023-03-07T09:27:18;98706.00;;;8.54;57.73
17060;BME280;8646;49.716;9.266;2023-03-07T09:30:21;98709.81;;;8.66;56.55
17060;BME280;8646;49.716;9.266;2023-03-07T09:33:25;98693.66;;;8.80;56.40
17060;BME280;8646;49.716;9.266;2023-03-07T09:36:29;98698.56;;;8.88;55.86
17060;BME280;8646;49.716;9.266;2023-03-07T09:39:35;98703.00;;;8.89;55.79
17060;BME280;8646;49.716;9.266;2023-03-07T09:42:47;98699.75;;;8.84;55.92
17060;BME280;8646;49.716;9.266;2023-03-07T09:46:06;98696.06;;;8.85;55.07
17060;BME280;8646;49.716;9.266;2023-03-07T09:49:24;98685.47;;;8.82;55.43
17060;BME280;8646;49.716;9.266;2023-03-07T09:52:40;98677.66;;;8.77;54.72
17060;BME280;8646;49.716;9.266;2023-03-07T09:55:42;98666.59;;;8.67;54.58
17060;BME280;8646;49.716;9.266;2023-03-07T09:58:49;98668.75;;;8.61;54.44
17060;BME280;8646;49.716;9.266;2023-03-07T10:01:59;98668.28;;;8.68;54.07
17060;BME280;8646;49.716;9.266;2023-03-07T10:05:12;98665.63;;;8.83;54.04
17060;BME280;8646;49.716;9.266;2023-03-07T10:08:25;98664.47;;;9.01;53.38
17060;BME280;8646;49.716;9.266;2023-03-07T10:11:43;98654.44;;;9.17;53.03
17060;BME280;8646;49.716;9.266;2023-03-07T10:15:10;98653.41;;;9.19;51.32
17060;BME280;8646;49.716;9.266;2023-03-07T10:18:27;98646.00;;;9.23;51.91
17060;BME280;8646;49.716;9.266;2023-03-07T10:21:38;98640.38;;;9.40;51.05
17060;BME280;8646;49.716;9.266;2023-03-07T10:25:05;98638.78;;;9.50;49.98
17060;BME280;8646;49.716;9.266;2023-03-07T10:28:15;98633.75;;;9.73;50.31
17060;BME280;8646;49.716;9.266;2023-03-07T10:31:23;98629.81;;;9.91;49.85
17060;BME280;8646;49.716;9.266;2023-03-07T10:34:29;98633.63;;;10.01;49.54
17060;BME280;8646;49.716;9.266;2023-03-07T10:37:40;98633.56;;;10.15;49.55
17060;BME280;8646;49.716;9.266;2023-03-07T10:40:49;98640.03;;;10.40;49.13
17060;BME280;8646;49.716;9.266;2023-03-07T10:43:53;98609.47;;;10.64;47.71
17060;BME280;8646;49.716;9.266;2023-03-07T10:46:58;98606.88;;;10.88;47.77
17060;BME280;8646;49.716;9.266;2023-03-07T10:50:33;98602.09;;;11.04;47.14
17060;BME280;8646;49.716;9.266;2023-03-07T10:53:40;98602.31;;;11.27;46.82
17060;BME280;8646;49.716;9.266;2023-03-07T10:57:04;98587.28;;;11.46;46.32
17060;BME280;8646;49.716;9.266;2023-03-07T11:00:13;98585.75;;;11.55;46.15
17060;BME280;8646;49.716;9.266;2023-03-07T11:03:26;98580.50;;;11.41;45.57
17060;BME280;8646;49.716;9.266;2023-03-07T11:06:51;98572.84;;;11.22;45.38
17060;BME280;8646;49.716;9.266;2023-03-07T11:09:55;98584.91;;;10.93;44.77
17060;BME280;8646;49.716;9.266;2023-03-07T11:13:06;98587.94;;;10.76;45.13
17060;BME280;8646;49.716;9.266;2023-03-07T11:16:15;98578.09;;;10.49;44.81
17060;BME280;8646;49.716;9.266;2023-03-07T11:19:32;98581.75;;;10.36;45.69
17060;BME280;8646;49.716;9.266;2023-03-07T11:22:36;98585.88;;;10.28;45.74
17060;BME280;8646;49.716;9.266;2023-03-07T11:25:39;98582.81;;;10.20;45.88
17060;BME280;8646;49.716;9.266;2023-03-07T11:28:43;98569.81;;;10.13;46.13
17060;BME280;8646;49.716;9.266;2023-03-07T11:31:51;98569.06;;;10.23;46.41
17060;BME280;8646;49.716;9.266;2023-03-07T11:35:02;98570.81;;;10.24;45.65
17060;BME280;8646;49.716;9.266;2023-03-07T11:38:12;98566.94;;;10.28;45.61
17060;BME280;8646;49.716;9.266;2023-03-07T11:41:23;98562.50;;;10.40;45.25
17060;BME280;8646;49.716;9.266;2023-03-07T11:44:33;98580.66;;;10.38;44.54
17060;BME280;8646;49.716;9.266;2023-03-07T11:47:46;98559.81;;;10.27;44.63
17060;BME280;8646;49.716;9.266;2023-03-07T11:50:54;98555.16;;;10.29;44.47
17060;BME280;8646;49.716;9.266;2023-03-07T11:54:05;98550.81;;;10.40;44.37
17060;BME280;8646;49.716;9.266;2023-03-07T11:57:17;98555.16;;;10.55;44.66
17060;BME280;8646;49.716;9.266;2023-03-07T12:00:29;98538.19;;;10.53;44.66
17060;BME280;8646;49.716;9.266;2023-03-07T12:07:27;98538.50;;;10.48;44.60
17060;BME280;8646;49.716;9.266;2023-03-07T12:10:46;98530.16;;;10.64;43.94
17060;BME280;8646;49.716;9.266;2023-03-07T12:13:58;98527.47;;;10.77;43.62
17060;BME280;8646;49.716;9.266;2023-03-07T12:17:15;98526.59;;;10.76;43.34
17060;BME280;8646;49.716;9.266;2023-03-07T12:20:29;98517.19;;;10.69;43.54
17060;BME280;8646;49.716;9.266;2023-03-07T12:23:40;98516.66;;;10.51;42.66
17060;BME280;8646;49.716;9.266;2023-03-07T12:26:50;98518.38;;;10.40;42.74
17060;BME280;8646;49.716;9.266;2023-03-07T12:29:58;98513.53;;;10.45;43.41
17060;BME280;8646;49.716;9.266;2023-03-07T12:33:05;98511.88;;;10.55;43.08
17060;BME280;8646;49.716;9.266;2023-03-07T12:36:19;98499.53;;;10.76;43.22
17060;BME280;8646;49.716;9.266;2023-03-07T12:39:27;98500.13;;;11.05;42.79
17060;BME280;8646;49.716;9.266;2023-03-07T12:42:37;98506.72;;;11.37;42.05
17060;BME280;8646;49.716;9.266;2023-03-07T12:45:44;98480.88;;;11.57;41.37
17060;BME280;8646;49.716;9.266;2023-03-07T12:48:53;98483.84;;;11.65;41.13
17060;BME280;8646;49.716;9.266;2023-03-07T12:52:00;98476.47;;;11.67;41.24
17060;BME280;8646;49.716;9.266;2023-03-07T12:55:15;98476.44;;;11.56;41.35
17060;BME280;8646;49.716;9.266;2023-03-07T12:58:34;98479.06;;;11.45;41.54
17060;BME280;8646;49.716;9.266;2023-03-07T13:01:43;98473.53;;;11.46;41.82
17060;BME280;8646;49.716;9.266;2023-03-07T13:04:49;98463.69;;;11.45;41.75
17060;BME280;8646;49.716;9.266;2023-03-07T13:07:52;98473.34;;;11.61;41.07
17060;BME280;8646;49.716;9.266;2023-03-07T13:10:55;98465.09;;;11.75;41.24
17060;BME280;8646;49.716;9.266;2023-03-07T13:13:59;98462.94;;;11.91;40.64
17060;BME280;8646;49.716;9.266;2023-03-07T13:17:02;98462.13;;;12.13;40.38
17060;BME280;8646;49.716;9.266;2023-03-07T13:20:35;98450.53;;;12.33;40.10
17060;BME280;8646;49.716;9.266;2023-03-07T13:23:39;98459.94;;;12.40;40.36
17060;BME280;8646;49.716;9.266;2023-03-07T13:26:43;98454.41;;;12.53;40.03
17060;BME280;8646;49.716;9.266;2023-03-07T13:30:11;98454.53;;;12.63;39.43
17060;BME280;8646;49.716;9.266;2023-03-07T13:33:26;98448.38;;;12.72;39.73
17060;BME280;8646;49.716;9.266;2023-03-07T13:36:33;98449.06;;;12.74;40.04
17060;BME280;8646;49.716;9.266;2023-03-07T13:39:37;98457.34;;;12.61;39.62
17060;BME280;8646;49.716;9.266;2023-03-07T13:42:44;98446.84;;;12.34;39.61
17060;BME280;8646;49.716;9.266;2023-03-07T13:45:48;98439.78;;;12.09;40.06
17060;BME280;8646;49.716;9.266;2023-03-07T13:49:00;98451.63;;;11.73;40.24
17060;BME280;8646;49.716;9.266;2023-03-07T13:52:22;98454.53;;;11.59;40.87
17060;BME280;8646;49.716;9.266;2023-03-07T13:55:30;98448.97;;;11.61;40.96
17060;BME280;8646;49.716;9.266;2023-03-07T13:58:43;98439.94;;;11.49;40.97
17060;BME280;8646;49.716;9.266;2023-03-07T14:01:53;98446.34;;;11.48;40.93
17060;BME280;8646;49.716;9.266;2023-03-07T14:05:01;98449.00;;;11.37;41.06
17060;BME280;8646;49.716;9.266;2023-03-07T14:08:09;98453.16;;;11.30;40.87
17060;BME280;8646;49.716;9.266;2023-03-07T14:11:20;98447.69;;;11.19;41.03
17060;BME280;8646;49.716;9.266;2023-03-07T14:14:47;98468.03;;;11.12;40.88
17060;BME280;8646;49.716;9.266;2023-03-07T14:18:08;98453.84;;;10.84;41.28
17060;BME280;8646;49.716;9.266;2023-03-07T14:21:24;98459.72;;;10.78;41.63
17060;BME280;8646;49.716;9.266;2023-03-07T14:24:44;98465.56;;;10.72;41.21
17060;BME280;8646;49.716;9.266;2023-03-07T14:27:53;98472.66;;;10.37;41.58
17060;BME280;8646;49.716;9.266;2023-03-07T14:30:57;98475.31;;;10.11;42.10
17060;BME280;8646;49.716;9.266;2023-03-07T14:34:02;98467.59;;;9.92;43.08
17060;BME280;8646;49.716;9.266;2023-03-07T14:37:21;98480.47;;;9.89;43.40
17060;BME280;8646;49.716;9.266;2023-03-07T14:40:32;98482.84;;;9.81;43.44
17060;BME280;8646;49.716;9.266;2023-03-07T14:43:44;98495.00;;;9.74;43.49
17060;BME280;8646;49.716;9.266;2023-03-07T14:47:00;98489.69;;;9.60;44.07
17060;BME280;8646;49.716;9.266;2023-03-07T14:50:11;98494.19;;;9.46;44.04
17060;BME280;8646;49.716;9.266;2023-03-07T14:53:17;98504.63;;;9.38;44.63
17060;BME280;8646;49.716;9.266;2023-03-07T14:56:24;98496.72;;;9.35;44.44
17060;BME280;8646;49.716;9.266;2023-03-07T14:59:28;98491.66;;;9.16;44.85
17060;BME280;8646;49.716;9.266;2023-03-07T15:02:31;98512.19;;;9.19;45.31
17060;BME280;8646;49.716;9.266;2023-03-07T15:05:35;98510.88;;;9.12;45.13
17060;BME280;8646;49.716;9.266;2023-03-07T15:08:38;98519.28;;;9.07;45.63
17060;BME280;8646;49.716;9.266;2023-03-07T15:11:47;98510.50;;;9.04;45.45
17060;BME280;8646;49.716;9.266;2023-03-07T15:14:54;98495.69;;;8.97;45.62
17060;BME280;8646;49.716;9.266;2023-03-07T15:18:03;98508.41;;;8.95;45.84
17060;BME280;8646;49.716;9.266;2023-03-07T15:21:08;98507.75;;;8.91;45.95
17060;BME280;8646;49.716;9.266;2023-03-07T15:24:19;98510.16;;;8.82;46.49
17060;BME280;8646;49.716;9.266;2023-03-07T15:27:26;98502.84;;;8.69;46.54
17060;BME280;8646;49.716;9.266;2023-03-07T15:30:32;98508.63;;;8.77;46.94
17060;BME280;8646;49.716;9.266;2023-03-07T15:33:36;98508.25;;;8.69;46.76
17060;BME280;8646;49.716;9.266;2023-03-07T15:36:39;98506.50;;;8.68;47.38
17060;BME280;8646;49.716;9.266;2023-03-07T15:39:42;98504.09;;;8.64;47.65
17060;BME280;8646;49.716;9.266;2023-03-07T15:42:50;98516.72;;;8.63;47.85
17060;BME280;8646;49.716;9.266;2023-03-07T15:46:00;98527.50;;;8.63;47.95
17060;BME280;8646;49.716;9.266;2023-03-07T15:49:04;98524.44;;;8.55;48.09
17060;BME280;8646;49.716;9.266;2023-03-07T15:52:19;98520.09;;;8.38;48.57
17060;BME280;8646;49.716;9.266;2023-03-07T15:55:24;98510.47;;;8.49;49.02
17060;BME280;8646;49.716;9.266;2023-03-07T15:58:29;98523.19;;;8.47;49.47
17060;BME280;8646;49.716;9.266;2023-03-07T16:01:32;98524.13;;;8.46;49.43
17060;BME280;8646;49.716;9.266;2023-03-07T16:04:37;98523.56;;;8.40;49.53
17060;BME280;8646;49.716;9.266;2023-03-07T16:07:40;98530.00;;;8.38;49.50
17060;BME280;8646;49.716;9.266;2023-03-07T16:10:48;98523.75;;;8.37;49.62
17060;BME280;8646;49.716;9.266;2023-03-07T16:13:54;98520.19;;;8.37;49.64
17060;BME280;8646;49.716;9.266;2023-03-07T16:16:59;98518.16;;;8.40;49.84
17060;BME280;8646;49.716;9.266;2023-03-07T16:20:12;98514.31;;;8.45;49.82
17060;BME280;8646;49.716;9.266;2023-03-07T16:23:15;98515.19;;;8.45;49.90
17060;BME280;8646;49.716;9.266;2023-03-07T16:26:20;98511.81;;;8.41;49.83
17060;BME280;8646;49.716;9.266;2023-03-07T16:29:24;98506.34;;;8.43;49.98
17060;BME280;8646;49.716;9.266;2023-03-07T16:32:28;98512.78;;;8.40;50.03
17060;BME280;8646;49.716;9.266;2023-03-07T16:35:31;98512.56;;;8.43;50.06
17060;BME280;8646;49.716;9.266;2023-03-07T16:38:34;98509.03;;;8.43;50.15
17060;BME280;8646;49.716;9.266;2023-03-07T16:41:37;98520.00;;;8.40;50.20
17060;BME280;8646;49.716;9.266;2023-03-07T16:44:42;98509.84;;;8.29;50.30
17060;BME280;8646;49.716;9.266;2023-03-07T16:47:45;98507.00;;;8.32;50.61
17060;BME280;8646;49.716;9.266;2023-03-07T16:50:48;98509.78;;;8.31;50.60
17060;BME280;8646;49.716;9.266;2023-03-07T16:53:51;98512.84;;;8.25;50.70
17060;BME280;8646;49.716;9.266;2023-03-07T16:57:06;98368.03;;;7.27;51.03